sensor_id;sensor_type;location;lat;lon;timestamp;P1;durP1;ratioP1;P2;durP2;ratioP2
28311;SDS011;15572;48.810;9.148;2023-02-10T00:02:44;39.37;;;18.37;;
28311;SDS011;15572;48.810;9.148;2023-02-10T00:07:40;46.80;;;19.37;;
28311;SDS011;15572;48.810;9.148;2023-02-10T00:12:36;39.07;;;19.53;;
28311;SDS011;15572;48.810;9.148;2023-02-10T00:17:34;40.20;;;19.17;;
28311;SDS011;15572;48.810;9.148;2023-02-10T00:22:31;40.30;;;19.47;;
28311;SDS011;15572;48.810;9.148;2023-02-10T00:27:27;39.67;;;18.67;;
28311;SDS011;15572;48.810;9.148;2023-02-10T00:32:24;41.73;;;18.60;;
28311;SDS011;15572;48.810;9.148;2023-02-10T00:37:22;42.13;;;19.07;;
28311;SDS011;15572;48.810;9.148;2023-02-10T00:42:18;46.77;;;19.83;;
28311;SDS011;15572;48.810;9.148;2023-02-10T00:47:14;45.33;;;19.40;;
28311;SDS011;15572;48.810;9.148;2023-02-10T00:52:11;38.50;;;17.37;;
28311;SDS011;15572;48.810;9.148;2023-02-10T00:57:09;38.97;;;18.13;;
28311;SDS011;15572;48.810;9.148;2023-02-10T01:02:05;39.23;;;18.77;;
28311;SDS011;15572;48.810;9.148;2023-02-10T01:07:02;41.47;;;18.67;;
28311;SDS011;15572;48.810;9.148;2023-02-10T01:11:58;38.87;;;17.87;;
28311;SDS011;15572;48.810;9.148;2023-02-10T01:16:56;41.33;;;18.50;;
28311;SDS011;15572;48.810;9.148;2023-02-10T01:21:52;40.20;;;18.83;;
28311;SDS011;15572;48.810;9.148;2023-02-10T01:26:49;38.53;;;18.77;;
28311;SDS011;15572;48.810;9.148;2023-02-10T01:31:45;42.13;;;19.47;;
28311;SDS011;15572;48.810;9.148;2023-02-10T01:36:43;38.00;;;17.77;;
28311;SDS011;15572;48.810;9.148;2023-02-10T01:41:40;41.00;;;18.30;;
28311;SDS011;15572;48.810;9.148;2023-02-10T01:46:36;40.40;;;18.43;;
28311;SDS011;15572;48.810;9.148;2023-02-10T01:51:37;38.83;;;18.40;;
28311;SDS011;15572;48.810;9.148;2023-02-10T01:56:38;44.00;;;19.67;;
28311;SDS011;15572;48.810;9.148;2023-02-10T02:01:35;40.87;;;19.67;;
28311;SDS011;15572;48.810;9.148;2023-02-10T02:06:32;46.20;;;20.00;;
28311;SDS011;15572;48.810;9.148;2023-02-10T02:11:31;41.20;;;19.23;;
28311;SDS011;15572;48.810;9.148;2023-02-10T02:16:46;42.17;;;18.83;;
28311;SDS011;15572;48.810;9.148;2023-02-10T02:22:01;47.30;;;21.57;;
28311;SDS011;15572;48.810;9.148;2023-02-10T02:27:21;49.80;;;20.87;;
28311;SDS011;15572;48.810;9.148;2023-02-10T02:32:32;42.33;;;19.30;;
28311;SDS011;15572;48.810;9.148;2023-02-10T02:37:33;41.23;;;18.30;;
28311;SDS011;15572;48.810;9.148;2023-02-10T02:42:34;43.57;;;19.20;;
28311;SDS011;15572;48.810;9.148;2023-02-10T02:47:36;41.03;;;19.10;;
28311;SDS011;15572;48.810;9.148;2023-02-10T02:52:48;42.37;;;18.80;;
28311;SDS011;15572;48.810;9.148;2023-02-10T02:57:55;42.27;;;18.90;;
28311;SDS011;15572;48.810;9.148;2023-02-10T03:08:35;43.10;;;19.40;;
28311;SDS011;15572;48.810;9.148;2023-02-10T03:13:34;42.73;;;19.33;;
28311;SDS011;15572;48.810;9.148;2023-02-10T03:18:31;45.53;;;20.07;;
28311;SDS011;15572;48.810;9.148;2023-02-10T03:23:27;44.37;;;19.13;;
28311;SDS011;15572;48.810;9.148;2023-02-10T03:28:26;44.63;;;19.50;;
28311;SDS011;15572;48.810;9.148;2023-02-10T03:33:23;40.27;;;18.83;;
28311;SDS011;15572;48.810;9.148;2023-02-10T03:38:19;44.53;;;19.80;;
28311;SDS011;15572;48.810;9.148;2023-02-10T03:43:16;42.83;;;19.00;;
28311;SDS011;15572;48.810;9.148;2023-02-10T03:48:14;44.77;;;20.03;;
28311;SDS011;15572;48.810;9.148;2023-02-10T03:53:11;43.07;;;19.27;;
28311;SDS011;15572;48.810;9.148;2023-02-10T03:58:08;47.80;;;20.23;;
28311;SDS011;15572;48.810;9.148;2023-02-10T04:03:04;46.03;;;19.93;;
28311;SDS011;15572;48.810;9.148;2023-02-10T04:08:02;46.37;;;20.17;;
28311;SDS011;15572;48.810;9.148;2023-02-10T04:12:59;43.23;;;19.03;;
28311;SDS011;15572;48.810;9.148;2023-02-10T04:17:55;50.70;;;20.53;;
28311;SDS011;15572;48.810;9.148;2023-02-10T04:22:52;44.13;;;20.33;;
28311;SDS011;15572;48.810;9.148;2023-02-10T04:27:50;39.77;;;19.17;;
28311;SDS011;15572;48.810;9.148;2023-02-10T04:32:46;42.63;;;19.60;;
28311;SDS011;15572;48.810;9.148;2023-02-10T04:37:43;48.13;;;21.17;;
28311;SDS011;15572;48.810;9.148;2023-02-10T04:42:39;45.03;;;17.83;;
28311;SDS011;15572;48.810;9.148;2023-02-10T04:47:37;47.83;;;21.00;;
28311;SDS011;15572;48.810;9.148;2023-02-10T04:52:33;49.20;;;21.33;;
28311;SDS011;15572;48.810;9.148;2023-02-10T04:57:30;49.23;;;20.23;;
28311;SDS011;15572;48.810;9.148;2023-02-10T05:02:26;46.27;;;20.53;;
28311;SDS011;15572;48.810;9.148;2023-02-10T05:07:24;45.03;;;19.57;;
28311;SDS011;15572;48.810;9.148;2023-02-10T05:12:20;49.13;;;21.33;;
28311;SDS011;15572;48.810;9.148;2023-02-10T05:17:17;44.97;;;19.73;;
28311;SDS011;15572;48.810;9.148;2023-02-10T05:22:13;45.13;;;20.37;;
28311;SDS011;15572;48.810;9.148;2023-02-10T05:27:11;48.90;;;21.20;;
28311;SDS011;15572;48.810;9.148;2023-02-10T05:32:07;40.97;;;19.97;;
28311;SDS011;15572;48.810;9.148;2023-02-10T05:37:04;46.33;;;20.33;;
28311;SDS011;15572;48.810;9.148;2023-02-10T05:42:00;46.70;;;20.80;;
28311;SDS011;15572;48.810;9.148;2023-02-10T05:46:58;44.57;;;20.00;;
28311;SDS011;15572;48.810;9.148;2023-02-10T05:51:55;46.20;;;21.37;;
28311;SDS011;15572;48.810;9.148;2023-02-10T05:56:51;42.90;;;20.03;;
28311;SDS011;15572;48.810;9.148;2023-02-10T06:01:48;49.23;;;20.87;;
28311;SDS011;15572;48.810;9.148;2023-02-10T06:06:45;51.43;;;22.10;;
28311;SDS011;15572;48.810;9.148;2023-02-10T06:11:42;51.73;;;22.77;;
28311;SDS011;15572;48.810;9.148;2023-02-10T06:16:38;43.43;;;19.93;;
28311;SDS011;15572;48.810;9.148;2023-02-10T06:21:35;48.17;;;21.97;;
28311;SDS011;15572;48.810;9.148;2023-02-10T06:26:33;46.20;;;22.03;;
28311;SDS011;15572;48.810;9.148;2023-02-10T06:31:29;47.50;;;21.37;;
28311;SDS011;15572;48.810;9.148;2023-02-10T06:36:26;46.97;;;22.70;;
28311;SDS011;15572;48.810;9.148;2023-02-10T06:41:22;49.43;;;21.37;;
28311;SDS011;15572;48.810;9.148;2023-02-10T06:46:20;46.17;;;21.57;;
28311;SDS011;15572;48.810;9.148;2023-02-10T06:51:17;49.30;;;20.30;;
28311;SDS011;15572;48.810;9.148;2023-02-10T06:56:13;46.77;;;20.37;;
28311;SDS011;15572;48.810;9.148;2023-02-10T07:01:10;57.10;;;20.97;;
28311;SDS011;15572;48.810;9.148;2023-02-10T07:06:10;49.57;;;21.07;;
28311;SDS011;15572;48.810;9.148;2023-02-10T07:11:07;48.60;;;20.57;;
28311;SDS011;15572;48.810;9.148;2023-02-10T07:16:03;42.93;;;19.47;;
28311;SDS011;15572;48.810;9.148;2023-02-10T07:21:00;45.13;;;21.37;;
28311;SDS011;15572;48.810;9.148;2023-02-10T07:25:58;48.67;;;21.03;;
28311;SDS011;15572;48.810;9.148;2023-02-10T07:30:54;47.43;;;21.60;;
28311;SDS011;15572;48.810;9.148;2023-02-10T07:35:51;50.77;;;21.10;;
28311;SDS011;15572;48.810;9.148;2023-02-10T07:40:47;50.13;;;21.97;;
28311;SDS011;15572;48.810;9.148;2023-02-10T07:45:45;46.20;;;23.37;;
28311;SDS011;15572;48.810;9.148;2023-02-10T07:50:41;52.23;;;22.97;;
28311;SDS011;15572;48.810;9.148;2023-02-10T07:55:38;53.63;;;24.97;;
28311;SDS011;15572;48.810;9.148;2023-02-10T08:00:34;57.00;;;25.27;;
28311;SDS011;15572;48.810;9.148;2023-02-10T08:05:34;53.33;;;25.33;;
28311;SDS011;15572;48.810;9.148;2023-02-10T08:10:31;53.17;;;25.27;;
28311;SDS011;15572;48.810;9.148;2023-02-10T08:15:27;54.30;;;26.90;;
28311;SDS011;15572;48.810;9.148;2023-02-10T08:20:24;56.97;;;26.60;;
28311;SDS011;15572;48.810;9.148;2023-02-10T08:25:22;51.97;;;25.53;;
28311;SDS011;15572;48.810;9.148;2023-02-10T08:30:18;58.90;;;26.80;;
28311;SDS011;15572;48.810;9.148;2023-02-10T08:35:15;55.37;;;25.77;;
28311;SDS011;15572;48.810;9.148;2023-02-10T08:40:12;59.37;;;26.23;;
28311;SDS011;15572;48.810;9.148;2023-02-10T08:45:09;61.73;;;27.07;;
28311;SDS011;15572;48.810;9.148;2023-02-10T08:50:06;57.07;;;27.10;;
28311;SDS011;15572;48.810;9.148;2023-02-10T08:55:03;53.73;;;26.93;;
28311;SDS011;15572;48.810;9.148;2023-02-10T09:00:00;52.43;;;26.67;;
28311;SDS011;15572;48.810;9.148;2023-02-10T09:04:58;56.77;;;28.10;;
28311;SDS011;15572;48.810;9.148;2023-02-10T09:09:54;55.07;;;27.13;;
28311;SDS011;15572;48.810;9.148;2023-02-10T09:14:51;51.60;;;27.23;;
28311;SDS011;15572;48.810;9.148;2023-02-10T09:19:47;57.13;;;28.17;;
28311;SDS011;15572;48.810;9.148;2023-02-10T09:24:45;58.67;;;28.10;;
28311;SDS011;15572;48.810;9.148;2023-02-10T09:29:42;57.50;;;27.93;;
28311;SDS011;15572;48.810;9.148;2023-02-10T09:34:38;51.97;;;25.97;;
28311;SDS011;15572;48.810;9.148;2023-02-10T09:39:35;50.63;;;26.37;;
28311;SDS011;15572;48.810;9.148;2023-02-10T09:44:35;53.87;;;27.60;;
28311;SDS011;15572;48.810;9.148;2023-02-10T09:55:01;52.23;;;27.83;;
28311;SDS011;15572;48.810;9.148;2023-02-10T10:00:00;49.73;;;27.33;;
28311;SDS011;15572;48.810;9.148;2023-02-10T10:04:58;53.33;;;28.33;;
28311;SDS011;15572;48.810;9.148;2023-02-10T10:09:58;56.73;;;28.03;;
28311;SDS011;15572;48.810;9.148;2023-02-10T10:14:57;55.47;;;28.17;;
28311;SDS011;15572;48.810;9.148;2023-02-10T10:19:58;50.23;;;26.90;;
28311;SDS011;15572;48.810;9.148;2023-02-10T10:25:12;53.40;;;26.43;;
28311;SDS011;15572;48.810;9.148;2023-02-10T10:30:18;56.63;;;27.40;;
28311;SDS011;15572;48.810;9.148;2023-02-10T10:35:23;48.53;;;26.30;;
28311;SDS011;15572;48.810;9.148;2023-02-10T10:40:25;51.40;;;27.53;;
28311;SDS011;15572;48.810;9.148;2023-02-10T10:45:28;48.47;;;25.90;;
28311;SDS011;15572;48.810;9.148;2023-02-10T10:50:30;48.23;;;26.07;;
28311;SDS011;15572;48.810;9.148;2023-02-10T10:55:27;47.87;;;25.63;;
28311;SDS011;15572;48.810;9.148;2023-02-10T11:00:31;49.47;;;25.87;;
28311;SDS011;15572;48.810;9.148;2023-02-10T11:05:30;51.10;;;26.17;;
28311;SDS011;15572;48.810;9.148;2023-02-10T11:10:30;52.20;;;24.70;;
28311;SDS011;15572;48.810;9.148;2023-02-10T11:15:37;45.57;;;24.87;;
28311;SDS011;15572;48.810;9.148;2023-02-10T11:20:36;45.03;;;24.67;;
28311;SDS011;15572;48.810;9.148;2023-02-10T11:25:33;44.57;;;24.30;;
28311;SDS011;15572;48.810;9.148;2023-02-10T11:30:32;42.00;;;23.90;;
28311;SDS011;15572;48.810;9.148;2023-02-10T11:35:31;41.27;;;22.87;;
28311;SDS011;15572;48.810;9.148;2023-02-10T11:40:31;44.17;;;24.13;;
28311;SDS011;15572;48.810;9.148;2023-02-10T11:45:52;39.10;;;22.90;;
28311;SDS011;15572;48.810;9.148;2023-02-10T11:50:59;40.27;;;23.83;;
28311;SDS011;15572;48.810;9.148;2023-02-10T11:55:59;39.70;;;22.20;;
28311;SDS011;15572;48.810;9.148;2023-02-10T12:01:01;33.67;;;19.80;;
28311;SDS011;15572;48.810;9.148;2023-02-10T12:06:05;34.43;;;20.87;;
28311;SDS011;15572;48.810;9.148;2023-02-10T12:11:07;36.67;;;21.57;;
28311;SDS011;15572;48.810;9.148;2023-02-10T12:16:12;37.80;;;22.13;;
28311;SDS011;15572;48.810;9.148;2023-02-10T12:21:22;37.77;;;21.93;;
28311;SDS011;15572;48.810;9.148;2023-02-10T12:26:34;37.00;;;21.43;;
28311;SDS011;15572;48.810;9.148;2023-02-10T12:31:39;35.27;;;20.77;;
28311;SDS011;15572;48.810;9.148;2023-02-10T12:36:46;33.23;;;17.87;;
28311;SDS011;15572;48.810;9.148;2023-02-10T12:41:54;26.53;;;16.90;;
28311;SDS011;15572;48.810;9.148;2023-02-10T12:47:06;27.60;;;16.30;;
28311;SDS011;15572;48.810;9.148;2023-02-10T12:52:10;31.53;;;17.13;;
28311;SDS011;15572;48.810;9.148;2023-02-10T12:57:12;27.43;;;17.30;;
28311;SDS011;15572;48.810;9.148;2023-02-10T13:02:14;30.67;;;17.57;;
28311;SDS011;15572;48.810;9.148;2023-02-10T13:07:16;29.60;;;17.50;;
28311;SDS011;15572;48.810;9.148;2023-02-10T13:12:23;33.70;;;18.97;;
28311;SDS011;15572;48.810;9.148;2023-02-10T13:17:22;31.07;;;17.93;;
28311;SDS011;15572;48.810;9.148;2023-02-10T13:22:19;29.57;;;17.37;;
28311;SDS011;15572;48.810;9.148;2023-02-10T13:27:28;28.70;;;17.37;;
28311;SDS011;15572;48.810;9.148;2023-02-10T13:32:37;28.43;;;18.07;;
28311;SDS011;15572;48.810;9.148;2023-02-10T13:37:43;27.83;;;16.03;;
28311;SDS011;15572;48.810;9.148;2023-02-10T13:42:47;29.30;;;17.67;;
28311;SDS011;15572;48.810;9.148;2023-02-10T13:47:47;27.90;;;17.20;;
28311;SDS011;15572;48.810;9.148;2023-02-10T13:52:49;26.43;;;16.27;;
28311;SDS011;15572;48.810;9.148;2023-02-10T13:57:52;28.23;;;17.50;;
28311;SDS011;15572;48.810;9.148;2023-02-10T14:02:58;29.93;;;18.60;;
28311;SDS011;15572;48.810;9.148;2023-02-10T14:07:56;29.00;;;18.37;;
28311;SDS011;15572;48.810;9.148;2023-02-10T14:12:54;32.43;;;18.97;;
28311;SDS011;15572;48.810;9.148;2023-02-10T14:17:54;30.60;;;18.90;;
28311;SDS011;15572;48.810;9.148;2023-02-10T14:22:53;30.73;;;17.67;;
28311;SDS011;15572;48.810;9.148;2023-02-10T14:27:54;29.90;;;17.87;;
28311;SDS011;15572;48.810;9.148;2023-02-10T14:32:51;27.83;;;16.10;;
28311;SDS011;15572;48.810;9.148;2023-02-10T14:37:49;28.10;;;15.73;;
28311;SDS011;15572;48.810;9.148;2023-02-10T14:42:45;27.13;;;16.10;;
28311;SDS011;15572;48.810;9.148;2023-02-10T14:47:44;30.40;;;16.87;;
28311;SDS011;15572;48.810;9.148;2023-02-10T14:52:46;28.53;;;15.60;;
28311;SDS011;15572;48.810;9.148;2023-02-10T14:57:43;28.77;;;16.77;;
28311;SDS011;15572;48.810;9.148;2023-02-10T15:02:56;26.30;;;14.97;;
28311;SDS011;15572;48.810;9.148;2023-02-10T15:07:54;28.80;;;16.87;;
28311;SDS011;15572;48.810;9.148;2023-02-10T15:12:53;27.97;;;17.33;;
28311;SDS011;15572;48.810;9.148;2023-02-10T15:17:51;30.33;;;16.87;;
28311;SDS011;15572;48.810;9.148;2023-02-10T15:23:02;29.80;;;17.53;;
28311;SDS011;15572;48.810;9.148;2023-02-10T15:28:17;29.33;;;16.47;;
28311;SDS011;15572;48.810;9.148;2023-02-10T15:33:17;31.27;;;16.70;;
28311;SDS011;15572;48.810;9.148;2023-02-10T15:38:16;28.90;;;17.07;;
28311;SDS011;15572;48.810;9.148;2023-02-10T15:43:21;33.23;;;18.63;;
28311;SDS011;15572;48.810;9.148;2023-02-10T15:48:21;39.53;;;17.43;;
28311;SDS011;15572;48.810;9.148;2023-02-10T15:53:20;29.97;;;17.50;;
28311;SDS011;15572;48.810;9.148;2023-02-10T15:58:17;29.03;;;16.13;;
28311;SDS011;15572;48.810;9.148;2023-02-10T16:03:14;32.87;;;17.10;;
28311;SDS011;15572;48.810;9.148;2023-02-10T16:08:13;30.63;;;17.20;;
28311;SDS011;15572;48.810;9.148;2023-02-10T16:13:15;32.20;;;17.07;;
28311;SDS011;15572;48.810;9.148;2023-02-10T16:18:13;33.83;;;17.13;;
28311;SDS011;15572;48.810;9.148;2023-02-10T16:23:10;41.90;;;18.00;;
28311;SDS011;15572;48.810;9.148;2023-02-10T16:28:09;29.10;;;15.90;;
28311;SDS011;15572;48.810;9.148;2023-02-10T16:33:09;28.23;;;14.97;;
28311;SDS011;15572;48.810;9.148;2023-02-10T16:38:06;33.83;;;17.97;;
28311;SDS011;15572;48.810;9.148;2023-02-10T16:43:04;33.30;;;17.00;;
28311;SDS011;15572;48.810;9.148;2023-02-10T16:48:01;29.50;;;15.80;;
28311;SDS011;15572;48.810;9.148;2023-02-10T16:52:59;36.60;;;18.13;;
28311;SDS011;15572;48.810;9.148;2023-02-10T16:57:58;32.47;;;16.67;;
28311;SDS011;15572;48.810;9.148;2023-02-10T17:02:55;35.90;;;17.17;;
28311;SDS011;15572;48.810;9.148;2023-02-10T17:07:52;34.40;;;17.33;;
28311;SDS011;15572;48.810;9.148;2023-02-10T17:12:49;34.83;;;17.87;;
28311;SDS011;15572;48.810;9.148;2023-02-10T17:17:46;32.60;;;17.60;;
28311;SDS011;15572;48.810;9.148;2023-02-10T17:22:43;34.83;;;17.67;;
28311;SDS011;15572;48.810;9.148;2023-02-10T17:27:40;32.20;;;16.53;;
28311;SDS011;15572;48.810;9.148;2023-02-10T17:32:37;33.83;;;16.30;;
28311;SDS011;15572;48.810;9.148;2023-02-10T17:37:39;36.30;;;17.43;;
28311;SDS011;15572;48.810;9.148;2023-02-10T17:42:37;38.63;;;17.00;;
28311;SDS011;15572;48.810;9.148;2023-02-10T17:47:33;34.73;;;17.90;;
28311;SDS011;15572;48.810;9.148;2023-02-10T17:52:31;35.77;;;17.77;;
28311;SDS011;15572;48.810;9.148;2023-02-10T17:57:28;39.80;;;18.27;;
28311;SDS011;15572;48.810;9.148;2023-02-10T18:02:24;33.77;;;17.13;;
28311;SDS011;15572;48.810;9.148;2023-02-10T18:07:21;36.17;;;17.70;;
28311;SDS011;15572;48.810;9.148;2023-02-10T18:12:18;34.93;;;18.03;;
28311;SDS011;15572;48.810;9.148;2023-02-10T18:17:15;39.13;;;18.40;;
28311;SDS011;15572;48.810;9.148;2023-02-10T18:22:11;37.17;;;18.27;;
28311;SDS011;15572;48.810;9.148;2023-02-10T18:27:08;36.63;;;17.23;;
28311;SDS011;15572;48.810;9.148;2023-02-10T18:32:06;35.30;;;17.53;;
28311;SDS011;15572;48.810;9.148;2023-02-10T18:37:02;35.53;;;17.27;;
28311;SDS011;15572;48.810;9.148;2023-02-10T18:41:59;37.43;;;18.57;;
28311;SDS011;15572;48.810;9.148;2023-02-10T18:46:56;34.97;;;17.93;;
28311;SDS011;15572;48.810;9.148;2023-02-10T18:51:53;32.17;;;17.13;;
28311;SDS011;15572;48.810;9.148;2023-02-10T18:56:50;36.87;;;18.40;;
28311;SDS011;15572;48.810;9.148;2023-02-10T19:01:47;36.90;;;18.00;;
28311;SDS011;15572;48.810;9.148;2023-02-10T19:06:43;38.17;;;18.77;;
28311;SDS011;15572;48.810;9.148;2023-02-10T19:11:41;34.40;;;17.40;;
28311;SDS011;15572;48.810;9.148;2023-02-10T19:16:38;44.80;;;19.17;;
28311;SDS011;15572;48.810;9.148;2023-02-10T19:21:35;45.07;;;20.47;;
28311;SDS011;15572;48.810;9.148;2023-02-10T19:26:31;40.73;;;19.57;;
28311;SDS011;15572;48.810;9.148;2023-02-10T19:31:29;39.70;;;17.90;;
28311;SDS011;15572;48.810;9.148;2023-02-10T19:36:26;34.13;;;16.53;;
28311;SDS011;15572;48.810;9.148;2023-02-10T19:41:26;38.73;;;17.93;;
28311;SDS011;15572;48.810;9.148;2023-02-10T19:46:30;39.00;;;18.70;;
28311;SDS011;15572;48.810;9.148;2023-02-10T19:51:27;37.03;;;18.63;;
28311;SDS011;15572;48.810;9.148;2023-02-10T19:56:23;37.27;;;17.03;;
28311;SDS011;15572;48.810;9.148;2023-02-10T20:01:20;34.10;;;16.77;;
28311;SDS011;15572;48.810;9.148;2023-02-10T20:06:22;33.37;;;16.03;;
28311;SDS011;15572;48.810;9.148;2023-02-10T20:11:21;35.73;;;16.93;;
28311;SDS011;15572;48.810;9.148;2023-02-10T20:16:18;45.23;;;20.87;;
28311;SDS011;15572;48.810;9.148;2023-02-10T20:21:15;36.90;;;17.57;;
28311;SDS011;15572;48.810;9.148;2023-02-10T20:26:13;39.57;;;16.73;;
28311;SDS011;15572;48.810;9.148;2023-02-10T20:31:11;32.30;;;16.17;;
28311;SDS011;15572;48.810;9.148;2023-02-10T20:36:09;36.83;;;16.93;;
28311;SDS011;15572;48.810;9.148;2023-02-10T20:41:08;36.27;;;17.10;;
28311;SDS011;15572;48.810;9.148;2023-02-10T20:46:06;37.87;;;17.17;;
28311;SDS011;15572;48.810;9.148;2023-02-10T20:51:05;35.20;;;16.87;;
28311;SDS011;15572;48.810;9.148;2023-02-10T20:56:03;35.87;;;17.27;;
28311;SDS011;15572;48.810;9.148;2023-02-10T21:01:00;66.87;;;27.80;;
28311;SDS011;15572;48.810;9.148;2023-02-10T21:06:08;35.97;;;16.93;;
28311;SDS011;15572;48.810;9.148;2023-02-10T21:11:08;34.53;;;16.37;;
28311;SDS011;15572;48.810;9.148;2023-02-10T21:16:07;35.83;;;16.87;;
28311;SDS011;15572;48.810;9.148;2023-02-10T21:21:06;31.60;;;15.80;;
28311;SDS011;15572;48.810;9.148;2023-02-10T21:26:05;38.33;;;16.83;;
28311;SDS011;15572;48.810;9.148;2023-02-10T21:31:06;38.03;;;19.00;;
28311;SDS011;15572;48.810;9.148;2023-02-10T21:36:04;35.37;;;17.10;;
28311;SDS011;15572;48.810;9.148;2023-02-10T21:41:03;40.10;;;19.03;;
28311;SDS011;15572;48.810;9.148;2023-02-10T21:46:00;33.87;;;17.07;;
28311;SDS011;15572;48.810;9.148;2023-02-10T21:50:56;38.43;;;18.17;;
28311;SDS011;15572;48.810;9.148;2023-02-10T21:55:53;37.20;;;17.63;;
28311;SDS011;15572;48.810;9.148;2023-02-10T22:00:51;34.63;;;17.03;;
28311;SDS011;15572;48.810;9.148;2023-02-10T22:05:52;33.23;;;16.67;;
28311;SDS011;15572;48.810;9.148;2023-02-10T22:10:49;36.07;;;17.50;;
28311;SDS011;15572;48.810;9.148;2023-02-10T22:15:51;37.47;;;17.67;;
28311;SDS011;15572;48.810;9.148;2023-02-10T22:20:48;33.80;;;15.30;;
28311;SDS011;15572;48.810;9.148;2023-02-10T22:25:44;32.33;;;15.53;;
28311;SDS011;15572;48.810;9.148;2023-02-10T22:30:42;32.00;;;15.90;;
28311;SDS011;15572;48.810;9.148;2023-02-10T22:35:40;32.17;;;16.27;;
28311;SDS011;15572;48.810;9.148;2023-02-10T22:40:38;30.47;;;14.73;;
28311;SDS011;15572;48.810;9.148;2023-02-10T22:45:35;25.93;;;12.53;;
28311;SDS011;15572;48.810;9.148;2023-02-10T22:50:32;32.60;;;14.20;;
28311;SDS011;15572;48.810;9.148;2023-02-10T22:55:29;27.53;;;14.13;;
28311;SDS011;15572;48.810;9.148;2023-02-10T23:00:26;27.63;;;13.90;;
28311;SDS011;15572;48.810;9.148;2023-02-10T23:05:23;29.07;;;13.57;;
28311;SDS011;15572;48.810;9.148;2023-02-10T23:10:20;30.37;;;14.50;;
28311;SDS011;15572;48.810;9.148;2023-02-10T23:15:17;27.57;;;12.87;;
28311;SDS011;15572;48.810;9.148;2023-02-10T23:20:14;30.50;;;13.57;;
28311;SDS011;15572;48.810;9.148;2023-02-10T23:25:11;25.00;;;13.17;;
28311;SDS011;15572;48.810;9.148;2023-02-10T23:30:08;33.67;;;14.37;;
28311;SDS011;15572;48.810;9.148;2023-02-10T23:35:07;26.13;;;12.77;;
28311;SDS011;15572;48.810;9.148;2023-02-10T23:40:03;24.80;;;12.33;;
28311;SDS011;15572;48.810;9.148;2023-02-10T23:45:00;27.47;;;13.67;;
28311;SDS011;15572;48.810;9.148;2023-02-10T23:49:57;29.33;;;14.57;;
28311;SDS011;15572;48.810;9.148;2023-02-10T23:54:54;27.50;;;13.17;;
28311;SDS011;15572;48.810;9.148;2023-02-10T23:59:51;36.00;;;18.03;;
